Time;durP1;ratioP1;P1;durP2;ratioP2;P2;SDS_P1;SDS_P2;PMS_P1;PMS_P2;Temp;Humidity;BMP_temperature;BMP_pressure;BME280_temperature;BME280_humidity;BME280_pressure;Samples;Min_cycle;Max_cycle;Signal;HPM_P1;HPM_P2
2021/08/16 00:01:39;;;;;;;45.70;42.77;;;;;;;;;;5036394;28;20427;-94
2021/08/16 00:04:06;;;;;;;44.47;41.90;;;;;;;;;;5053710;28;20462;-95
2021/08/16 00:06:34;;;;;;;49.53;46.13;;;;;;;;;;5053475;28;20459;-95
2021/08/16 00:09:01;;;;;;;47.80;44.90;;;;;;;;;;5056018;28;20455;-95
2021/08/16 00:11:30;;;;;;;45.43;42.33;;;;;;;;;;5039515;28;20418;-95
2021/08/16 00:13:58;;;;;;;48.13;45.33;;;;;;;;;;5056318;28;20415;-95
2021/08/16 00:16:27;;;;;;;47.87;44.97;;;;;;;;;;5057169;28;20458;-94
2021/08/16 00:18:54;;;;;;;47.63;44.50;;;;;;;;;;5057216;28;20409;-95
2021/08/16 00:21:21;;;;;;;47.47;44.47;;;;;;;;;;5057084;28;20407;-95
2021/08/16 00:23:49;;;;;;;52.10;49.00;;;;;;;;;;5056740;28;20455;-95
2021/08/16 00:26:16;;;;;;;50.33;47.07;;;;;;;;;;5056721;28;20490;-94
2021/08/16 00:28:45;;;;;;;51.13;47.93;;;;;;;;;;5056622;28;20451;-95
2021/08/16 00:31:12;;;;;;;52.80;49.50;;;;;;;;;;5056728;28;20491;-95
2021/08/16 00:33:40;;;;;;;50.67;47.37;;;;;;;;;;5056895;28;20481;-94
2021/08/16 00:36:07;;;;;;;51.77;48.73;;;;;;;;;;5056840;28;20437;-95
2021/08/16 00:38:35;;;;;;;49.90;46.70;;;;;;;;;;5056513;28;20483;-95
2021/08/16 00:41:02;;;;;;;48.30;45.07;;;;;;;;;;5056681;28;20419;-94
2021/08/16 00:43:30;;;;;;;49.93;46.87;;;;;;;;;;5056684;28;20482;-95
2021/08/16 00:45:59;;;;;;;52.30;48.90;;;;;;;;;;5055608;28;20446;-95
2021/08/16 00:48:27;;;;;;;47.60;44.60;;;;;;;;;;5056349;28;20412;-95
2021/08/16 00:50:54;;;;;;;46.40;43.50;;;;;;;;;;5056292;28;20422;-95
2021/08/16 00:53:22;;;;;;;47.50;44.57;;;;;;;;;;5056485;28;20411;-95
2021/08/16 00:55:49;;;;;;;46.77;43.77;;;;;;;;;;5056439;28;20439;-95
2021/08/16 00:58:17;;;;;;;37.00;34.70;;;;;;;;;;5056233;28;20456;-95
2021/08/16 01:00:44;;;;;;;40.73;38.13;;;;;;;;;;5056883;28;20424;-94
2021/08/16 01:03:13;;;;;;;39.70;36.83;;;;;;;;;;5056234;28;20504;-95
2021/08/16 01:05:40;;;;;;;39.40;36.93;;;;;;;;;;5054999;28;20443;-95
2021/08/16 01:08:08;;;;;;;38.93;36.23;;;;;;;;;;5055901;28;20819;-95
2021/08/16 01:10:35;;;;;;;49.40;46.03;;;;;;;;;;5054809;28;20435;-95
2021/08/16 01:13:03;;;;;;;45.20;42.20;;;;;;;;;;5055219;28;20452;-95
2021/08/16 01:15:31;;;;;;;45.63;42.93;;;;;;;;;;5055301;28;20455;-94
2021/08/16 01:17:59;;;;;;;44.77;41.83;;;;;;;;;;5055581;28;20548;-95
2021/08/16 01:20:28;;;;;;;42.73;40.10;;;;;;;;;;5056142;28;20434;-95
2021/08/16 01:22:56;;;;;;;41.80;39.37;;;;;;;;;;5056664;28;20426;-95
2021/08/16 01:25:23;;;;;;;42.20;39.87;;;;;;;;;;5055886;28;20488;-95
2021/08/16 01:27:52;;;;;;;35.53;33.23;;;;;;;;;;5056256;28;20480;-95
2021/08/16 01:30:19;;;;;;;35.43;33.00;;;;;;;;;;5055620;28;20435;-95
2021/08/16 01:32:47;;;;;;;33.73;31.60;;;;;;;;;;5055520;28;20451;-95
2021/08/16 01:35:14;;;;;;;34.10;32.20;;;;;;;;;;5054760;28;20418;-96
2021/08/16 01:37:42;;;;;;;33.50;30.97;;;;;;;;;;5055912;28;20814;-96
2021/08/16 01:40:13;;;;;;;33.60;31.57;;;;;;;;;;5055333;28;20886;-96
2021/08/16 01:42:41;;;;;;;35.23;32.90;;;;;;;;;;5055307;28;20411;-96
2021/08/16 01:45:11;;;;;;;34.23;32.03;;;;;;;;;;5054424;28;20483;-95
2021/08/16 01:47:38;;;;;;;32.07;30.07;;;;;;;;;;5054986;28;20430;-95
2021/08/16 01:50:06;;;;;;;32.43;30.20;;;;;;;;;;5055562;28;20444;-95
2021/08/16 01:52:34;;;;;;;32.43;30.33;;;;;;;;;;5054426;28;20422;-96
2021/08/16 01:55:01;;;;;;;32.83;30.43;;;;;;;;;;5055489;28;20462;-95
2021/08/16 01:57:28;;;;;;;31.73;29.73;;;;;;;;;;5055340;28;20898;-96
2021/08/16 01:59:56;;;;;;;30.23;28.33;;;;;;;;;;5055272;28;20889;-96
2021/08/16 02:02:25;;;;;;;31.57;29.77;;;;;;;;;;5054133;28;20442;-96
2021/08/16 02:04:52;;;;;;;29.80;27.77;;;;;;;;;;5054836;28;20487;-96
2021/08/16 02:07:19;;;;;;;30.10;28.10;;;;;;;;;;5054905;28;20462;-95
2021/08/16 02:09:47;;;;;;;30.20;28.40;;;;;;;;;;5054840;28;20461;-96
2021/08/16 02:12:14;;;;;;;30.47;28.60;;;;;;;;;;5055206;28;20435;-95
2021/08/16 02:14:41;;;;;;;30.30;28.10;;;;;;;;;;5055865;28;20432;-96
2021/08/16 02:17:09;;;;;;;29.17;27.47;;;;;;;;;;5056152;28;20416;-95
2021/08/16 02:19:38;;;;;;;29.33;27.60;;;;;;;;;;5054782;28;20436;-96
2021/08/16 02:22:05;;;;;;;28.93;27.13;;;;;;;;;;5055364;28;20799;-95
2021/08/16 02:24:32;;;;;;;28.50;26.60;;;;;;;;;;5054840;28;20476;-96
2021/08/16 02:27:00;;;;;;;29.53;27.63;;;;;;;;;;5055166;28;20409;-96
2021/08/16 02:29:27;;;;;;;29.50;27.50;;;;;;;;;;5054525;28;20451;-96
2021/08/16 02:31:55;;;;;;;28.50;26.60;;;;;;;;;;5054122;28;20480;-96
2021/08/16 02:34:22;;;;;;;28.90;26.90;;;;;;;;;;5054426;28;20449;-96
2021/08/16 02:36:51;;;;;;;29.97;28.07;;;;;;;;;;5055031;28;20455;-95
2021/08/16 02:39:18;;;;;;;26.07;24.57;;;;;;;;;;5054333;28;20935;-96
2021/08/16 02:41:46;;;;;;;27.13;24.93;;;;;;;;;;5054971;28;20429;-96
2021/08/16 02:44:13;;;;;;;28.37;26.47;;;;;;;;;;5054520;28;20451;-96
2021/08/16 02:46:41;;;;;;;28.47;26.17;;;;;;;;;;5054398;28;20413;-95
2021/08/16 02:49:08;;;;;;;26.93;25.07;;;;;;;;;;5054493;28;20459;-96
2021/08/16 02:51:35;;;;;;;26.27;24.37;;;;;;;;;;5054583;28;20931;-96
2021/08/16 02:54:05;;;;;;;25.90;24.20;;;;;;;;;;5054380;28;20423;-96
2021/08/16 02:56:32;;;;;;;28.33;25.50;;;;;;;;;;5053494;28;20444;-96
2021/08/16 02:59:00;;;;;;;27.93;25.93;;;;;;;;;;5054066;28;20416;-95
2021/08/16 03:01:27;;;;;;;27.43;25.37;;;;;;;;;;5054552;28;20427;-96
2021/08/16 03:03:54;;;;;;;26.63;24.70;;;;;;;;;;5054552;28;20441;-95
2021/08/16 03:06:23;;;;;;;26.87;24.80;;;;;;;;;;5053986;28;20469;-96
2021/08/16 03:08:50;;;;;;;26.43;24.60;;;;;;;;;;5053034;28;20430;-96
2021/08/16 03:11:19;;;;;;;27.00;25.10;;;;;;;;;;5053199;28;20435;-96
2021/08/16 03:13:46;;;;;;;26.27;24.47;;;;;;;;;;5053397;28;20448;-95
2021/08/16 03:16:14;;;;;;;28.17;25.50;;;;;;;;;;5054090;28;20894;-95
2021/08/16 03:18:41;;;;;;;26.87;25.23;;;;;;;;;;5054226;28;20432;-95
2021/08/16 03:21:09;;;;;;;27.40;25.50;;;;;;;;;;5054201;28;20448;-95
2021/08/16 03:23:36;;;;;;;28.77;26.70;;;;;;;;;;5054000;28;20440;-96
2021/08/16 03:26:04;;;;;;;28.40;26.40;;;;;;;;;;5054448;28;20494;-95
2021/08/16 03:28:33;;;;;;;28.13;25.93;;;;;;;;;;5054096;28;20779;-96
2021/08/16 03:31:00;;;;;;;27.17;25.17;;;;;;;;;;5052612;28;20486;-95
2021/08/16 03:33:27;;;;;;;28.83;27.00;;;;;;;;;;5053792;28;20452;-96
2021/08/16 03:35:55;;;;;;;27.00;25.30;;;;;;;;;;5053692;28;20430;-96
2021/08/16 03:38:22;;;;;;;26.23;24.33;;;;;;;;;;5054053;28;20757;-96
2021/08/16 03:40:50;;;;;;;27.20;25.17;;;;;;;;;;5054010;28;20438;-96
2021/08/16 03:43:17;;;;;;;26.97;25.17;;;;;;;;;;5057002;28;20443;-95
2021/08/16 03:45:46;;;;;;;26.63;24.63;;;;;;;;;;5057451;28;20468;-95
2021/08/16 03:48:13;;;;;;;26.07;24.20;;;;;;;;;;5056730;28;20813;-95
2021/08/16 03:50:41;;;;;;;26.60;24.77;;;;;;;;;;5057795;28;20414;-95
2021/08/16 03:53:08;;;;;;;26.27;24.47;;;;;;;;;;5057570;28;20409;-95
2021/08/16 03:55:36;;;;;;;26.93;25.23;;;;;;;;;;5057718;28;20442;-96
2021/08/16 03:58:03;;;;;;;27.20;25.30;;;;;;;;;;5057299;28;20432;-95
2021/08/16 04:00:30;;;;;;;24.40;22.60;;;;;;;;;;5059022;28;20438;-95
2021/08/16 04:03:00;;;;;;;28.37;25.77;;;;;;;;;;5057872;28;20439;-95
2021/08/16 04:05:27;;;;;;;25.03;23.43;;;;;;;;;;5057073;28;20469;-95
2021/08/16 04:07:55;;;;;;;25.73;23.93;;;;;;;;;;5056436;28;20442;-95
2021/08/16 04:10:23;;;;;;;24.53;22.57;;;;;;;;;;5057460;28;20456;-95
2021/08/16 04:12:51;;;;;;;22.67;21.30;;;;;;;;;;5058325;28;20440;-96
2021/08/16 04:15:21;;;;;;;24.10;22.40;;;;;;;;;;5057537;28;20456;-95
2021/08/16 04:17:48;;;;;;;23.23;21.60;;;;;;;;;;5058449;28;20423;-96
2021/08/16 04:20:17;;;;;;;25.30;23.30;;;;;;;;;;5057669;28;20789;-96
2021/08/16 04:22:45;;;;;;;25.90;24.17;;;;;;;;;;5056333;28;20413;-95
2021/08/16 04:25:14;;;;;;;23.53;21.93;;;;;;;;;;5058757;28;20801;-96
2021/08/16 04:27:42;;;;;;;23.47;21.70;;;;;;;;;;5056568;28;20454;-95
2021/08/16 04:30:10;;;;;;;26.43;24.10;;;;;;;;;;5057354;28;20428;-96
2021/08/16 04:32:38;;;;;;;24.50;22.80;;;;;;;;;;5056710;28;20462;-95
2021/08/16 04:35:06;;;;;;;24.73;23.13;;;;;;;;;;5056679;28;20429;-95
2021/08/16 04:37:37;;;;;;;26.73;24.70;;;;;;;;;;5056996;28;20410;-95
2021/08/16 04:40:04;;;;;;;26.10;23.97;;;;;;;;;;5056640;28;20473;-95
2021/08/16 04:42:32;;;;;;;26.50;23.93;;;;;;;;;;5056947;28;20451;-94
2021/08/16 04:44:59;;;;;;;26.70;24.67;;;;;;;;;;5056844;28;20499;-95
2021/08/16 04:47:27;;;;;;;26.47;24.57;;;;;;;;;;5056857;28;20445;-96
2021/08/16 04:49:56;;;;;;;27.77;25.30;;;;;;;;;;5056402;28;20873;-95
2021/08/16 04:52:24;;;;;;;28.00;25.97;;;;;;;;;;5056317;28;20495;-95
2021/08/16 04:54:53;;;;;;;28.60;26.00;;;;;;;;;;5056314;28;20451;-96
2021/08/16 04:57:35;;;;;;;27.80;25.60;;;;;;;;;;5056407;28;20412;-96
2021/08/16 05:00:03;;;;;;;29.40;27.13;;;;;;;;;;5053107;28;20448;-96
2021/08/16 05:02:30;;;;;;;27.07;25.07;;;;;;;;;;5056642;28;20773;-96
2021/08/16 05:05:06;;;;;;;28.10;26.30;;;;;;;;;;5056454;28;20477;-96
2021/08/16 05:07:33;;;;;;;28.93;26.30;;;;;;;;;;5056468;28;20411;-95
2021/08/16 05:10:02;;;;;;;28.50;26.27;;;;;;;;;;5056639;28;20984;-96
2021/08/16 05:15:15;;;;;;;26.47;24.40;;;;;;;;;;5063683;22;20545;-92
2021/08/16 05:17:43;;;;;;;25.20;23.20;;;;;;;;;;5056020;28;20411;-94
2021/08/16 05:20:11;;;;;;;28.10;25.60;;;;;;;;;;5059061;28;20416;-95
2021/08/16 05:22:40;;;;;;;28.23;25.80;;;;;;;;;;5056195;28;20412;-96
2021/08/16 05:25:10;;;;;;;27.80;25.43;;;;;;;;;;5055759;28;20451;-96
2021/08/16 05:27:37;;;;;;;27.07;24.53;;;;;;;;;;5048095;22;20489;-94
2021/08/16 05:30:05;;;;;;;27.97;25.57;;;;;;;;;;5036089;28;20773;-95
2021/08/16 05:32:32;;;;;;;29.60;26.90;;;;;;;;;;5035862;28;21011;-95
2021/08/16 05:35:00;;;;;;;28.57;26.53;;;;;;;;;;5036047;28;20915;-95
2021/08/16 05:37:27;;;;;;;27.87;25.27;;;;;;;;;;5034849;28;20450;-95
2021/08/16 05:39:54;;;;;;;27.27;24.70;;;;;;;;;;5035792;28;20407;-94
2021/08/16 05:42:23;;;;;;;27.13;24.90;;;;;;;;;;5035566;28;20416;-95
2021/08/16 05:44:51;;;;;;;26.37;23.87;;;;;;;;;;5034711;28;20468;-95
2021/08/16 05:47:18;;;;;;;26.30;24.40;;;;;;;;;;5055586;28;20440;-95
2021/08/16 05:49:45;;;;;;;28.17;25.00;;;;;;;;;;5055290;28;20456;-95
2021/08/16 05:52:13;;;;;;;27.43;25.13;;;;;;;;;;5055730;28;20412;-94
2021/08/16 05:54:40;;;;;;;29.77;26.83;;;;;;;;;;5055139;28;20423;-95
2021/08/16 05:57:08;;;;;;;26.80;24.17;;;;;;;;;;5055082;28;20432;-95
2021/08/16 05:59:36;;;;;;;27.23;25.00;;;;;;;;;;5055031;28;20445;-94
2021/08/16 06:02:04;;;;;;;31.87;25.97;;;;;;;;;;5055234;28;20446;-95
2021/08/16 06:04:31;;;;;;;28.20;25.70;;;;;;;;;;5054363;28;20422;-95
2021/08/16 06:06:59;;;;;;;28.50;26.17;;;;;;;;;;5054598;28;20491;-95
2021/08/16 06:09:26;;;;;;;28.97;26.27;;;;;;;;;;5054875;28;20470;-95
2021/08/16 06:11:55;;;;;;;27.40;25.17;;;;;;;;;;5056264;28;20429;-95
2021/08/16 06:14:23;;;;;;;31.67;25.60;;;;;;;;;;5047752;28;20422;-96
2021/08/16 06:16:53;;;;;;;28.90;26.37;;;;;;;;;;5056179;28;20440;-96
2021/08/16 06:19:20;;;;;;;29.17;26.70;;;;;;;;;;5073834;28;20414;-94
2021/08/16 06:21:48;;;;;;;29.53;27.20;;;;;;;;;;5051241;28;20391;-96
2021/08/16 06:24:15;;;;;;;28.23;26.17;;;;;;;;;;5074022;28;20400;-96
2021/08/16 06:37:05;;;;;;;30.10;27.10;;;;;;;;;;5055049;28;20519;-96
2021/08/16 06:39:33;;;;;;;27.93;25.90;;;;;;;;;;5057063;28;20419;-96
2021/08/16 06:42:00;;;;;;;28.87;26.57;;;;;;;;;;5040797;28;20417;-95
2021/08/16 06:44:28;;;;;;;30.50;27.90;;;;;;;;;;5057338;28;20436;-96
2021/08/16 06:46:59;;;;;;;29.83;27.10;;;;;;;;;;5053219;28;20458;-96
2021/08/16 06:49:32;;;;;;;29.50;27.03;;;;;;;;;;5060869;22;20440;-95
2021/08/16 06:57:30;;;;;;;30.47;27.70;;;;;;;;;;5775563;22;20496;-96
2021/08/16 07:03:01;;;;;;;31.90;29.00;;;;;;;;;;5070055;22;21050;-94
2021/08/16 07:05:36;;;;;;;31.77;29.40;;;;;;;;;;5044618;28;20484;-96
2021/08/16 07:08:04;;;;;;;30.53;28.07;;;;;;;;;;5038082;28;20523;-96
2021/08/16 07:10:31;;;;;;;31.97;29.43;;;;;;;;;;5043279;28;20424;-96
2021/08/16 07:13:01;;;;;;;31.67;29.13;;;;;;;;;;5049980;28;20417;-95
2021/08/16 07:20:48;;;;;;;32.17;29.50;;;;;;;;;;5385682;22;20328;-87
2021/08/16 07:23:16;;;;;;;36.03;31.67;;;;;;;;;;5038093;28;20499;-91
2021/08/16 07:25:43;;;;;;;31.27;28.50;;;;;;;;;;5037743;28;20491;-91
2021/08/16 07:28:12;;;;;;;31.33;28.50;;;;;;;;;;5036961;28;20935;-91
2021/08/16 07:30:40;;;;;;;32.97;30.00;;;;;;;;;;5038339;28;20459;-91
2021/08/16 07:33:07;;;;;;;29.80;27.60;;;;;;;;;;5038154;28;20449;-91
2021/08/16 07:35:35;;;;;;;29.80;27.40;;;;;;;;;;5038184;28;20903;-90
2021/08/16 07:38:02;;;;;;;30.60;28.10;;;;;;;;;;5038017;28;20786;-90
2021/08/16 07:40:30;;;;;;;29.30;26.70;;;;;;;;;;5037649;28;20885;-89
2021/08/16 07:42:57;;;;;;;33.07;30.30;;;;;;;;;;5037956;28;20441;-90
2021/08/16 07:45:26;;;;;;;32.33;29.53;;;;;;;;;;5037884;28;20412;-90
2021/08/16 07:47:54;;;;;;;32.47;30.00;;;;;;;;;;5036466;28;20442;-89
2021/08/16 07:50:21;;;;;;;33.93;30.90;;;;;;;;;;5037914;28;20426;-90
2021/08/16 07:52:49;;;;;;;31.83;29.03;;;;;;;;;;5037681;28;20434;-90
2021/08/16 07:55:16;;;;;;;31.47;28.80;;;;;;;;;;5037753;28;20886;-90
2021/08/16 07:57:44;;;;;;;30.30;27.90;;;;;;;;;;5037700;28;20431;-90
2021/08/16 08:00:12;;;;;;;29.37;26.77;;;;;;;;;;5037403;28;20432;-92
2021/08/16 08:02:41;;;;;;;31.30;28.17;;;;;;;;;;5036408;28;20984;-92
2021/08/16 08:05:10;;;;;;;33.07;29.90;;;;;;;;;;5037469;28;20449;-92
2021/08/16 08:07:37;;;;;;;31.70;29.03;;;;;;;;;;5037194;28;20944;-92
2021/08/16 08:10:05;;;;;;;28.50;26.43;;;;;;;;;;5037573;28;20413;-89
2021/08/16 08:12:33;;;;;;;31.70;29.10;;;;;;;;;;5037157;28;20446;-90
2021/08/16 08:15:00;;;;;;;31.53;29.27;;;;;;;;;;5037735;28;20465;-96
2021/08/16 08:17:28;;;;;;;28.90;26.90;;;;;;;;;;5037261;28;20449;-90
2021/08/16 08:19:57;;;;;;;33.10;30.10;;;;;;;;;;5037523;28;20476;-93
2021/08/16 08:22:24;;;;;;;30.53;27.93;;;;;;;;;;5037512;28;20443;-94
2021/08/16 08:24:52;;;;;;;28.80;26.57;;;;;;;;;;5037133;28;20457;-95
2021/08/16 08:27:20;;;;;;;32.53;29.57;;;;;;;;;;5035747;28;20808;-94
2021/08/16 08:29:48;;;;;;;27.83;26.07;;;;;;;;;;5036952;28;20825;-94
2021/08/16 08:32:15;;;;;;;30.10;27.73;;;;;;;;;;5036037;28;20445;-96
2021/08/16 08:34:43;;;;;;;31.60;29.00;;;;;;;;;;5038155;28;20416;-96
2021/08/16 08:37:14;;;;;;;29.50;27.33;;;;;;;;;;5044802;28;20483;-96
2021/08/16 08:39:42;;;;;;;29.73;27.40;;;;;;;;;;5044646;28;20451;-96
2021/08/16 08:42:11;;;;;;;30.93;28.43;;;;;;;;;;5040226;28;20425;-96
2021/08/16 08:44:39;;;;;;;29.03;26.87;;;;;;;;;;5042620;28;20442;-96
2021/08/16 08:47:07;;;;;;;30.00;27.90;;;;;;;;;;5039693;28;20486;-96
2021/08/16 08:49:35;;;;;;;28.63;26.37;;;;;;;;;;5041888;28;20425;-96
2021/08/16 08:52:02;;;;;;;27.80;25.70;;;;;;;;;;5041131;28;20833;-96
2021/08/16 08:54:31;;;;;;;28.57;26.57;;;;;;;;;;5039335;28;20770;-96
2021/08/16 08:56:59;;;;;;;29.70;26.90;;;;;;;;;;5038883;28;20423;-85
2021/08/16 08:59:26;;;;;;;27.20;25.37;;;;;;;;;;5036858;28;20427;-89
2021/08/16 09:01:54;;;;;;;25.90;24.10;;;;;;;;;;5036519;28;20403;-89
2021/08/16 09:04:22;;;;;;;26.80;24.90;;;;;;;;;;5036288;28;20419;-88
2021/08/16 09:06:49;;;;;;;28.50;26.30;;;;;;;;;;5036240;28;20467;-88
2021/08/16 09:09:17;;;;;;;29.00;26.57;;;;;;;;;;5036051;28;20833;-88
2021/08/16 09:11:49;;;;;;;24.30;22.60;;;;;;;;;;5036178;28;20449;-88
2021/08/16 09:14:17;;;;;;;28.40;26.13;;;;;;;;;;5036623;28;20488;-88
2021/08/16 09:16:45;;;;;;;28.27;25.93;;;;;;;;;;5036342;28;20438;-88
2021/08/16 09:19:13;;;;;;;28.60;25.90;;;;;;;;;;5035973;28;20440;-87
2021/08/16 09:21:43;;;;;;;27.10;25.10;;;;;;;;;;5035812;28;20491;-88
2021/08/16 09:24:10;;;;;;;28.77;26.43;;;;;;;;;;5035874;28;20441;-88
2021/08/16 09:26:39;;;;;;;27.10;25.00;;;;;;;;;;5036255;28;20973;-90
2021/08/16 09:29:16;;;;;;;25.60;23.60;;;;;;;;;;5036175;28;20522;-89
2021/08/16 09:31:54;;;;;;;24.93;23.23;;;;;;;;;;5034492;28;20812;-89
2021/08/16 09:34:28;;;;;;;24.90;22.67;;;;;;;;;;5036122;28;20444;-89
2021/08/16 09:36:56;;;;;;;25.50;23.43;;;;;;;;;;5035968;28;20435;-89
2021/08/16 09:39:24;;;;;;;26.00;24.30;;;;;;;;;;5035166;28;20448;-89
2021/08/16 09:41:57;;;;;;;25.87;23.30;;;;;;;;;;5035924;28;20416;-89
2021/08/16 09:44:26;;;;;;;24.97;23.17;;;;;;;;;;5036135;28;20508;-89
2021/08/16 09:47:01;;;;;;;25.23;23.50;;;;;;;;;;5035596;28;20467;-89
2021/08/16 09:49:29;;;;;;;25.67;23.87;;;;;;;;;;5035309;28;20411;-89
2021/08/16 09:52:04;;;;;;;25.67;23.80;;;;;;;;;;5034638;28;20449;-89
2021/08/16 09:54:32;;;;;;;25.93;24.10;;;;;;;;;;5035309;28;20416;-89
2021/08/16 09:57:01;;;;;;;25.50;23.87;;;;;;;;;;5035260;28;20475;-88
2021/08/16 09:59:30;;;;;;;25.20;23.60;;;;;;;;;;5036120;28;20435;-89
2021/08/16 10:01:57;;;;;;;26.90;25.13;;;;;;;;;;5035120;28;20457;-89
2021/08/16 10:04:25;;;;;;;25.77;24.00;;;;;;;;;;5035030;28;20473;-89
2021/08/16 10:06:54;;;;;;;23.67;22.37;;;;;;;;;;5035005;28;20465;-88
2021/08/16 10:09:22;;;;;;;24.73;23.13;;;;;;;;;;5034799;28;20460;-89
2021/08/16 10:11:50;;;;;;;26.50;24.43;;;;;;;;;;5035208;28;20503;-90
2021/08/16 10:14:19;;;;;;;25.40;23.70;;;;;;;;;;5035098;28;20783;-89
2021/08/16 10:16:49;;;;;;;24.50;22.90;;;;;;;;;;5034764;28;20886;-89
2021/08/16 10:19:18;;;;;;;25.00;23.50;;;;;;;;;;5034725;28;20453;-88
2021/08/16 10:21:46;;;;;;;25.23;23.63;;;;;;;;;;5034599;28;20485;-89
2021/08/16 10:24:17;;;;;;;25.77;24.00;;;;;;;;;;5035132;28;20417;-89
2021/08/16 10:26:55;;;;;;;26.07;24.07;;;;;;;;;;5035059;28;20488;-89
2021/08/16 10:29:22;;;;;;;25.43;23.53;;;;;;;;;;5034833;28;20456;-89
2021/08/16 10:31:52;;;;;;;25.30;23.70;;;;;;;;;;5034905;28;20897;-89
2021/08/16 10:34:25;;;;;;;26.60;24.60;;;;;;;;;;5034856;28;20483;-89
2021/08/16 10:36:56;;;;;;;25.37;23.63;;;;;;;;;;5034688;28;20416;-89
2021/08/16 10:39:33;;;;;;;24.20;22.80;;;;;;;;;;5034661;28;20745;-89
2021/08/16 10:42:05;;;;;;;28.03;26.00;;;;;;;;;;5034732;28;20420;-89
2021/08/16 10:44:38;;;;;;;22.57;21.20;;;;;;;;;;5034611;28;20476;-88
2021/08/16 10:47:07;;;;;;;26.13;24.40;;;;;;;;;;5034645;28;20471;-88
2021/08/16 10:49:35;;;;;;;24.57;23.10;;;;;;;;;;5034590;28;20419;-89
2021/08/16 10:52:03;;;;;;;26.47;24.73;;;;;;;;;;5033907;28;20413;-89
2021/08/16 10:54:31;;;;;;;53.50;49.83;;;;;;;;;;5034268;28;20907;-90
2021/08/16 10:56:59;;;;;;;114.83;107.90;;;;;;;;;;5034439;28;20427;-90
2021/08/16 10:59:27;;;;;;;53.57;50.17;;;;;;;;;;5034601;28;20455;-90
2021/08/16 11:01:57;;;;;;;44.20;41.90;;;;;;;;;;5034331;28;20423;-92
2021/08/16 11:04:30;;;;;;;47.77;45.17;;;;;;;;;;5034747;28;20442;-90
2021/08/16 11:06:59;;;;;;;45.13;42.57;;;;;;;;;;5034367;28;20472;-90
2021/08/16 11:09:27;;;;;;;46.53;44.07;;;;;;;;;;5034244;28;20901;-89
2021/08/16 11:12:00;;;;;;;48.57;46.00;;;;;;;;;;5034035;28;20928;-88
2021/08/16 11:14:28;;;;;;;49.73;47.03;;;;;;;;;;5033195;28;20449;-87
2021/08/16 11:16:55;;;;;;;48.77;46.00;;;;;;;;;;5034240;28;20774;-88
2021/08/16 11:19:23;;;;;;;48.43;45.73;;;;;;;;;;5033844;28;20419;-87
2021/08/16 11:21:56;;;;;;;50.53;47.43;;;;;;;;;;5033213;28;20798;-89
2021/08/16 11:24:27;;;;;;;53.50;50.60;;;;;;;;;;5033963;28;20486;-89
2021/08/16 11:26:55;;;;;;;56.00;52.77;;;;;;;;;;5034226;28;20451;-88
2021/08/16 11:29:24;;;;;;;50.43;47.43;;;;;;;;;;5034115;28;20415;-88
2021/08/16 11:31:58;;;;;;;48.43;45.70;;;;;;;;;;5034044;28;20487;-88
2021/08/16 11:34:26;;;;;;;51.47;48.53;;;;;;;;;;5034157;28;20455;-88
2021/08/16 11:36:56;;;;;;;53.10;49.50;;;;;;;;;;5033728;28;20452;-88
2021/08/16 11:39:30;;;;;;;52.63;49.83;;;;;;;;;;5033907;28;20483;-88
2021/08/16 11:41:58;;;;;;;50.67;47.73;;;;;;;;;;5034058;28;20902;-88
2021/08/16 11:44:26;;;;;;;50.83;48.03;;;;;;;;;;5034230;28;20460;-87
2021/08/16 11:46:54;;;;;;;51.63;48.53;;;;;;;;;;5032607;28;20802;-88
2021/08/16 11:49:21;;;;;;;52.20;48.70;;;;;;;;;;5033674;28;20445;-88
2021/08/16 11:51:48;;;;;;;53.40;50.00;;;;;;;;;;5032856;28;20517;-88
2021/08/16 11:54:26;;;;;;;47.67;44.93;;;;;;;;;;5033982;28;20439;-87
2021/08/16 11:56:54;;;;;;;50.47;47.57;;;;;;;;;;5033809;28;20454;-87
2021/08/16 11:59:22;;;;;;;50.87;47.80;;;;;;;;;;5034083;28;20439;-88
2021/08/16 12:01:49;;;;;;;52.30;49.17;;;;;;;;;;5033822;28;20805;-90
2021/08/16 12:04:17;;;;;;;49.10;46.50;;;;;;;;;;5036993;28;20455;-88
2021/08/16 12:06:47;;;;;;;52.50;49.20;;;;;;;;;;5037372;28;20427;-87
2021/08/16 12:09:15;;;;;;;48.30;45.70;;;;;;;;;;5037366;28;20453;-87
2021/08/16 12:11:44;;;;;;;50.27;47.00;;;;;;;;;;5037082;28;20434;-87
2021/08/16 12:14:11;;;;;;;46.80;44.07;;;;;;;;;;5037164;28;20411;-87
2021/08/16 12:16:40;;;;;;;46.27;43.70;;;;;;;;;;5037607;28;20609;-86
2021/08/16 12:19:09;;;;;;;49.60;46.90;;;;;;;;;;5036391;28;20416;-86
2021/08/16 12:21:38;;;;;;;51.40;48.13;;;;;;;;;;5036591;28;20525;-86
2021/08/16 12:24:07;;;;;;;48.67;46.00;;;;;;;;;;5037346;28;20424;-87
2021/08/16 12:26:36;;;;;;;50.77;47.67;;;;;;;;;;5036081;28;20469;-93
2021/08/16 12:29:05;;;;;;;49.50;46.70;;;;;;;;;;5037162;28;20494;-92
2021/08/16 12:31:32;;;;;;;52.33;49.43;;;;;;;;;;5036954;28;20459;-87
2021/08/16 12:34:01;;;;;;;50.60;47.80;;;;;;;;;;5037120;28;20420;-87
2021/08/16 12:36:30;;;;;;;48.30;45.60;;;;;;;;;;5036436;28;20551;-87
2021/08/16 12:38:59;;;;;;;45.57;43.07;;;;;;;;;;5035815;28;20950;-87
2021/08/16 12:41:27;;;;;;;44.83;42.03;;;;;;;;;;5036439;28;20411;-88
2021/08/16 12:43:55;;;;;;;42.60;40.40;;;;;;;;;;5037093;28;20429;-86
2021/08/16 12:46:31;;;;;;;41.57;39.27;;;;;;;;;;5036568;28;20446;-87
2021/08/16 12:48:59;;;;;;;40.80;38.50;;;;;;;;;;5036714;28;20998;-88
2021/08/16 12:51:27;;;;;;;41.80;39.40;;;;;;;;;;5037546;28;20441;-87
2021/08/16 12:53:58;;;;;;;38.10;35.90;;;;;;;;;;5036361;28;20914;-88
2021/08/16 12:56:25;;;;;;;33.47;31.67;;;;;;;;;;5036606;28;20409;-88
2021/08/16 12:58:53;;;;;;;35.23;33.10;;;;;;;;;;5036527;28;20428;-88
2021/08/16 13:01:21;;;;;;;34.80;32.90;;;;;;;;;;5036519;28;20446;-88
2021/08/16 13:03:50;;;;;;;35.63;33.73;;;;;;;;;;5036718;28;20899;-88
2021/08/16 13:06:18;;;;;;;35.07;32.60;;;;;;;;;;5036406;28;20482;-88
2021/08/16 13:08:45;;;;;;;34.23;32.27;;;;;;;;;;5036069;28;20462;-87
2021/08/16 13:11:13;;;;;;;34.53;32.37;;;;;;;;;;5036079;28;20417;-88
2021/08/16 13:13:40;;;;;;;35.63;33.47;;;;;;;;;;5035946;28;20907;-88
2021/08/16 13:16:08;;;;;;;33.17;31.37;;;;;;;;;;5036369;28;20488;-87
2021/08/16 13:18:35;;;;;;;32.93;30.73;;;;;;;;;;5036118;28;20440;-89
2021/08/16 13:21:06;;;;;;;32.77;30.87;;;;;;;;;;5035768;28;20489;-88
2021/08/16 13:23:34;;;;;;;31.13;29.27;;;;;;;;;;5035898;28;20419;-88
2021/08/16 13:26:01;;;;;;;33.17;30.97;;;;;;;;;;5036317;28;20436;-88
2021/08/16 13:28:28;;;;;;;33.93;31.53;;;;;;;;;;5035258;28;20496;-88
2021/08/16 13:30:56;;;;;;;31.47;29.50;;;;;;;;;;5035770;28;20412;-88
2021/08/16 13:33:24;;;;;;;31.37;29.17;;;;;;;;;;5035706;28;20448;-87
2021/08/16 13:35:51;;;;;;;32.80;30.77;;;;;;;;;;5034915;28;20474;-90
2021/08/16 13:38:20;;;;;;;31.87;29.37;;;;;;;;;;5036208;28;20425;-90
2021/08/16 13:40:48;;;;;;;28.93;27.17;;;;;;;;;;5034564;28;20493;-86
2021/08/16 13:43:15;;;;;;;28.60;26.70;;;;;;;;;;5035630;28;20768;-86
2021/08/16 13:45:43;;;;;;;29.07;27.00;;;;;;;;;;5035716;28;20818;-88
2021/08/16 13:48:11;;;;;;;28.70;26.80;;;;;;;;;;5035337;28;20494;-87
2021/08/16 13:50:38;;;;;;;27.27;25.60;;;;;;;;;;5035331;28;20502;-87
2021/08/16 13:53:06;;;;;;;27.17;25.57;;;;;;;;;;5035507;28;20461;-91
2021/08/16 13:55:35;;;;;;;28.80;26.83;;;;;;;;;;5034498;28;20464;-83
2021/08/16 13:58:03;;;;;;;32.00;30.30;;;;;;;;;;5035438;28;20468;-91
2021/08/16 14:00:30;;;;;;;33.17;31.00;;;;;;;;;;5035281;28;20436;-88
2021/08/16 14:02:58;;;;;;;34.00;32.07;;;;;;;;;;5033664;28;20448;-88
2021/08/16 14:05:25;;;;;;;35.80;33.87;;;;;;;;;;5035582;28;20411;-89
2021/08/16 14:07:52;;;;;;;35.80;33.83;;;;;;;;;;5035214;28;20477;-88
2021/08/16 14:10:20;;;;;;;35.80;33.93;;;;;;;;;;5034869;28;20918;-88
2021/08/16 14:12:49;;;;;;;37.33;35.33;;;;;;;;;;5035313;28;20427;-89
2021/08/16 14:15:17;;;;;;;37.00;35.07;;;;;;;;;;5035210;28;20419;-88
2021/08/16 14:17:44;;;;;;;40.17;37.80;;;;;;;;;;5034904;28;20420;-88
2021/08/16 14:20:12;;;;;;;39.63;37.50;;;;;;;;;;5034923;28;20482;-88
2021/08/16 14:22:39;;;;;;;39.63;37.03;;;;;;;;;;5035173;28;20411;-88
2021/08/16 14:25:08;;;;;;;39.23;37.10;;;;;;;;;;5034100;28;20423;-88
2021/08/16 14:27:36;;;;;;;37.87;35.70;;;;;;;;;;5034479;28;20437;-88
2021/08/16 14:30:05;;;;;;;37.17;35.10;;;;;;;;;;5034681;28;20440;-88
2021/08/16 14:32:33;;;;;;;36.30;34.27;;;;;;;;;;5034884;28;20450;-88
2021/08/16 14:35:00;;;;;;;34.63;32.60;;;;;;;;;;5034576;28;20937;-89
2021/08/16 14:37:27;;;;;;;37.17;34.43;;;;;;;;;;5034881;28;20461;-88
2021/08/16 14:39:55;;;;;;;36.30;33.73;;;;;;;;;;5034757;28;20419;-88
2021/08/16 14:42:22;;;;;;;33.07;31.17;;;;;;;;;;5034630;28;20462;-88
2021/08/16 14:44:50;;;;;;;34.00;31.97;;;;;;;;;;5033599;28;20444;-88
2021/08/16 14:47:19;;;;;;;34.00;31.80;;;;;;;;;;5034796;28;20868;-88
2021/08/16 14:49:46;;;;;;;34.17;32.00;;;;;;;;;;5034291;28;20466;-88